createdAt,value
2022-11-07T00:03:20.327Z,10.47
2022-11-07T00:08:32.177Z,10.43
2022-11-07T00:13:37.073Z,10.45
2022-11-07T00:18:41.141Z,10.46
2022-11-07T00:23:45.547Z,10.45
2022-11-07T00:28:48.893Z,10.39
2022-11-07T00:33:52.755Z,10.41
2022-11-07T00:38:57.920Z,10.40
2022-11-07T00:44:00.977Z,10.37
2022-11-07T00:49:03.978Z,10.36
2022-11-07T00:54:08.429Z,10.35
2022-11-07T00:59:11.416Z,10.30
2022-11-07T01:04:32.874Z,10.31
2022-11-07T01:09:37.663Z,10.28
2022-11-07T01:14:40.976Z,10.28
2022-11-07T01:19:44.034Z,10.28
2022-11-07T01:24:48.735Z,10.28
2022-11-07T01:29:51.692Z,10.31
2022-11-07T01:34:54.959Z,10.32
2022-11-07T01:39:59.545Z,10.30
2022-11-07T01:45:02.659Z,10.30
2022-11-07T01:50:08.640Z,10.30
2022-11-07T01:55:17.248Z,10.30
2022-11-07T02:00:23.210Z,10.32
2022-11-07T02:05:30.554Z,10.33
2022-11-07T02:10:36.238Z,10.32
2022-11-07T02:15:39.503Z,10.30
2022-11-07T02:20:43.144Z,10.27
2022-11-07T02:25:48.029Z,10.23
2022-11-07T02:30:51.313Z,10.23
2022-11-07T02:35:55.734Z,10.19
2022-11-07T02:41:05.002Z,10.23
2022-11-07T02:46:11.751Z,10.24
2022-11-07T02:51:14.931Z,10.25
2022-11-07T02:56:20.063Z,10.23
2022-11-07T03:01:25.324Z,10.24
2022-11-07T03:06:28.652Z,10.32
2022-11-07T03:11:33.272Z,10.33
2022-11-07T03:16:36.436Z,10.36
2022-11-07T03:21:39.643Z,10.44
2022-11-07T03:26:44.337Z,10.50
2022-11-07T03:31:47.407Z,10.55
2022-11-07T03:36:50.891Z,10.61
2022-11-07T03:41:55.708Z,10.63
2022-11-07T03:46:59.255Z,10.58
2022-11-07T03:52:02.513Z,10.60
2022-11-07T03:57:07.496Z,10.60
2022-11-07T04:02:10.571Z,10.68
2022-11-07T04:07:13.787Z,10.72
2022-11-07T04:12:35.719Z,10.77
2022-11-07T04:17:38.788Z,10.74
2022-11-07T04:22:42.026Z,10.70
2022-11-07T04:27:47.259Z,10.70
2022-11-07T04:32:51.783Z,10.70
2022-11-07T04:37:55.378Z,10.69
2022-11-07T04:43:00.136Z,10.71
2022-11-07T04:48:03.244Z,10.72
2022-11-07T04:53:06.763Z,10.71
2022-11-07T04:58:14.187Z,10.74
2022-11-07T05:03:17.658Z,10.77
2022-11-07T05:08:21.320Z,10.79
2022-11-07T05:13:25.956Z,10.82
2022-11-07T05:18:29.351Z,10.86
2022-11-07T05:23:32.379Z,10.94
2022-11-07T05:28:39.486Z,10.93
2022-11-07T05:33:43.564Z,10.92
2022-11-07T05:38:48.208Z,10.89
2022-11-07T05:43:52.688Z,10.88
2022-11-07T05:49:00.709Z,10.88
2022-11-07T05:54:04.454Z,10.87
2022-11-07T05:59:10.383Z,10.87
2022-11-07T06:04:13.518Z,10.85
2022-11-07T06:09:16.619Z,10.88
2022-11-07T06:14:21.209Z,10.92
2022-11-07T06:19:24.319Z,10.93
2022-11-07T06:24:27.910Z,10.96
2022-11-07T06:29:32.405Z,10.95
2022-11-07T06:34:35.388Z,11.01
2022-11-07T06:39:38.658Z,11.03
2022-11-07T06:44:43.212Z,11.02
2022-11-07T06:49:46.774Z,11.04
2022-11-07T06:54:50.097Z,11.05
2022-11-07T06:59:54.533Z,11.07
2022-11-07T07:04:57.730Z,11.05
2022-11-07T07:10:00.693Z,11.07
2022-11-07T07:15:05.860Z,11.13
2022-11-07T07:20:10.187Z,11.15
2022-11-07T07:25:13.221Z,11.23
2022-11-07T07:30:18.277Z,11.25
2022-11-07T07:35:22.186Z,11.30
2022-11-07T07:40:25.548Z,11.37
2022-11-07T07:45:32.954Z,11.45
2022-11-07T07:50:36.045Z,11.57
2022-11-07T07:55:39.337Z,11.65
2022-11-07T08:00:44.008Z,11.68
2022-11-07T08:05:54.354Z,11.73
2022-11-07T08:11:02.272Z,11.88
2022-11-07T08:16:08.746Z,11.94
2022-11-07T08:21:11.806Z,12.12
2022-11-07T08:26:14.885Z,12.14
2022-11-07T08:31:19.467Z,12.09
2022-11-07T08:36:22.731Z,12.19
2022-11-07T08:41:26.153Z,12.34
2022-11-07T08:46:30.792Z,12.46
2022-11-07T08:51:34.356Z,12.49
2022-11-07T08:56:37.427Z,12.54
2022-11-07T09:02:15.039Z,12.56
2022-11-07T09:07:05.640Z,12.61
2022-11-07T09:12:09.627Z,12.71
2022-11-07T09:17:14.209Z,12.85
2022-11-07T09:22:17.432Z,12.91
2022-11-07T09:27:20.422Z,12.95
2022-11-07T09:32:43.819Z,12.93
2022-11-07T09:37:47.333Z,12.96
2022-11-07T09:43:04.365Z,12.98
2022-11-07T09:48:21.418Z,13.09
2022-11-07T09:53:30.971Z,13.27
2022-11-07T09:58:38.296Z,13.54
2022-11-07T10:04:03.757Z,13.72
2022-11-07T10:09:15.191Z,13.75
2022-11-07T10:14:29.746Z,13.81
2022-11-07T10:19:50.310Z,13.83
2022-11-07T10:25:12.062Z,14.00
2022-11-07T10:30:18.320Z,14.13
2022-11-07T10:35:28.331Z,14.16
2022-11-07T10:40:36.703Z,14.26
2022-11-07T10:45:41.458Z,14.27
2022-11-07T10:50:54.201Z,14.25
2022-11-07T10:55:57.494Z,14.21
2022-11-07T11:01:04.568Z,14.17
2022-11-07T11:06:20.922Z,14.27
2022-11-07T11:11:29.597Z,14.51
2022-11-07T11:16:37.211Z,14.66
2022-11-07T11:21:44.597Z,14.75
2022-11-07T11:26:51.062Z,14.73
2022-11-07T11:31:57.886Z,14.70
2022-11-07T11:37:07.726Z,14.72
2022-11-07T11:42:20.253Z,14.78
2022-11-07T11:47:30.380Z,14.92
2022-11-07T11:52:38.801Z,15.15
2022-11-07T11:57:52.366Z,15.32
2022-11-07T12:03:22.993Z,15.42
2022-11-07T12:08:42.804Z,15.40
2022-11-07T12:13:55.532Z,15.53
2022-11-07T12:19:08.087Z,15.64
2022-11-07T12:24:31.461Z,15.81
2022-11-07T12:29:49.373Z,15.79
2022-11-07T12:35:06.359Z,15.75
2022-11-07T12:40:28.991Z,15.62
2022-11-07T12:45:46.663Z,15.42
2022-11-07T12:50:56.600Z,15.29
2022-11-07T12:56:04.759Z,15.14
2022-11-07T13:01:09.141Z,15.03
2022-11-07T13:06:18.207Z,14.90
2022-11-07T13:11:29.686Z,14.89
2022-11-07T13:16:38.064Z,14.97
2022-11-07T13:21:42.878Z,15.04
2022-11-07T13:26:48.170Z,15.10
2022-11-07T13:32:06.477Z,15.15
2022-11-07T13:37:17.729Z,15.16
2022-11-07T13:42:25.513Z,15.27
2022-11-07T13:47:35.307Z,15.33
2022-11-07T13:52:45.632Z,15.40
2022-11-07T13:57:54.997Z,15.42
2022-11-07T14:02:59.904Z,15.34
2022-11-07T14:08:05.461Z,15.31
2022-11-07T14:13:13.500Z,15.19
2022-11-07T14:18:18.695Z,15.14
2022-11-07T14:23:24.379Z,15.10
2022-11-07T14:28:36.224Z,15.01
2022-11-07T14:33:39.676Z,14.97
2022-11-07T14:38:46.984Z,14.88
2022-11-07T14:43:52.675Z,14.77
2022-11-07T14:48:56.676Z,14.67
2022-11-07T14:54:04.003Z,14.53
2022-11-07T14:59:14.139Z,14.45
2022-11-07T15:04:27.281Z,14.41
2022-11-07T15:09:35.938Z,14.30
2022-11-07T15:14:40.432Z,14.25
2022-11-07T15:19:44.368Z,14.12
2022-11-07T15:24:47.882Z,14.01
2022-11-07T15:29:56.392Z,13.91
2022-11-07T15:35:17.498Z,13.83
2022-11-07T15:40:24.289Z,13.78
2022-11-07T15:45:28.841Z,13.73
2022-11-07T15:50:32.222Z,13.67
2022-11-07T15:55:35.336Z,13.65
2022-11-07T16:00:39.872Z,13.66
2022-11-07T16:05:43.889Z,13.76
2022-11-07T16:10:48.747Z,13.79
2022-11-07T16:15:57.721Z,13.84
2022-11-07T16:21:00.739Z,13.86
2022-11-07T16:26:03.923Z,13.86
2022-11-07T16:31:08.794Z,13.88
2022-11-07T16:36:20.734Z,13.88
2022-11-07T16:41:24.711Z,13.88
2022-11-07T16:46:30.233Z,13.89
2022-11-07T16:51:34.353Z,13.90
2022-11-07T16:56:37.610Z,13.91
2022-11-07T17:01:42.324Z,13.95
2022-11-07T17:06:47.881Z,13.97
2022-11-07T17:11:51.012Z,13.99
2022-11-07T17:16:55.676Z,13.96
2022-11-07T17:21:58.814Z,13.99
2022-11-07T17:27:02.163Z,13.99
2022-11-07T17:32:07.266Z,14.00
2022-11-07T17:37:15.108Z,14.00
2022-11-07T17:42:18.191Z,13.95
2022-11-07T17:47:29.686Z,13.87
2022-11-07T17:52:33.136Z,13.80
2022-11-07T17:57:36.266Z,13.74
2022-11-07T18:02:40.901Z,13.71
2022-11-07T18:07:44.531Z,13.69
2022-11-07T18:12:47.685Z,13.65
2022-11-07T18:17:52.275Z,13.58
2022-11-07T18:22:55.258Z,13.55
2022-11-07T18:27:58.592Z,13.53
2022-11-07T18:33:03.088Z,13.60
2022-11-07T18:38:06.240Z,13.61
2022-11-07T18:43:11.784Z,13.62
2022-11-07T18:48:17.645Z,13.58
2022-11-07T18:53:21.047Z,13.53
2022-11-07T18:58:24.039Z,13.49
2022-11-07T19:03:28.580Z,13.43
2022-11-07T19:08:33.711Z,13.43
2022-11-07T19:13:38.144Z,13.41
2022-11-07T19:18:48.173Z,13.39
2022-11-07T19:23:52.581Z,13.37
2022-11-07T19:28:57.497Z,13.35
2022-11-07T19:34:01.876Z,13.32
2022-11-07T19:39:05.155Z,13.30
2022-11-07T19:44:08.484Z,13.30
2022-11-07T19:49:12.993Z,13.26
2022-11-07T19:54:16.062Z,13.27
2022-11-07T19:59:19.317Z,13.29
2022-11-07T20:04:23.695Z,13.31
2022-11-07T20:09:27.253Z,13.31
2022-11-07T20:14:30.327Z,13.33
2022-11-07T20:19:35.366Z,13.33
2022-11-07T20:24:38.619Z,13.38
2022-11-07T20:29:41.666Z,13.42
2022-11-07T20:34:51.303Z,13.46
2022-11-07T20:39:56.954Z,13.49
2022-11-07T20:45:00.509Z,13.53
2022-11-07T20:50:05.356Z,13.53
2022-11-07T20:55:09.170Z,13.55
2022-11-07T21:00:14.025Z,13.56
2022-11-07T21:05:19.056Z,13.56
2022-11-07T21:10:22.595Z,13.56
2022-11-07T21:15:26.289Z,13.58
2022-11-07T21:20:30.811Z,13.58
2022-11-07T21:25:34.271Z,13.56
2022-11-07T21:30:38.395Z,13.59
2022-11-07T21:35:43.585Z,13.62
2022-11-07T21:40:47.173Z,13.61
2022-11-07T21:45:50.308Z,13.64
2022-11-07T21:50:54.818Z,13.61
2022-11-07T21:56:00.084Z,13.61
2022-11-07T22:01:03.942Z,13.60
2022-11-07T22:06:10.600Z,13.56
2022-11-07T22:11:13.912Z,13.54
2022-11-07T22:16:19.661Z,13.53
2022-11-07T22:21:25.015Z,13.54
2022-11-07T22:26:29.008Z,13.49
2022-11-07T22:31:32.703Z,13.48
2022-11-07T22:36:37.239Z,13.48
2022-11-07T22:41:40.267Z,13.48
2022-11-07T22:46:43.754Z,13.41
2022-11-07T22:51:48.199Z,13.35
2022-11-07T22:56:51.239Z,13.28
2022-11-07T23:01:54.903Z,13.17
2022-11-07T23:06:59.494Z,13.03
2022-11-07T23:12:02.603Z,13.01
2022-11-07T23:17:05.910Z,12.89
2022-11-07T23:22:10.472Z,12.77
2022-11-07T23:27:13.615Z,12.66
2022-11-07T23:32:16.963Z,12.57
2022-11-07T23:37:21.268Z,12.47
2022-11-07T23:42:24.529Z,12.39
2022-11-07T23:47:44.919Z,12.30
2022-11-07T23:52:49.302Z,12.23
2022-11-07T23:58:09.586Z,12.16
